Thunder radar more information blitzortung!


Radar de pluja more information rain snow radar


Visita la nostra xarxa de llocs de meteo:

Template documentation
and downloads

And another site



No particular awareness of the weather is required.    There are no Weather-warnings

Pagina Historial Weather Underground text

Diari Resum Agost 22, 2017 Unitats:  Tant    Imperial   Mètric
« Previous Dia
SegĂźent Dia »
Diari Setmana Mensual Anual Personalitzada
  Maxima: Minima: Media:
Temperatura: 91.4 °F /  33.0 °C 66 °F /  18.9 °C 79.7 °F /  26.5 °C
Punt de rosada: 68.4 °F /  20.2 °C 60.8 °F /  16.0 °C 63.9 °F /  17.7 °C
Humitat: 87 % 42 % 61 %
Wind Speed: 13.8 mph /  22.2 km/h - 4.5 mph /  7.2 km/h
RĂ fegues de vent: 13.8 mph /  22.2 km/h - -
Vent:- - SW
Pression baro: 30 in /  1016.8 hPa 29.9 in /  1013.8 hPa -
Precipitacions: 0 in /  0.0 mm    
Historical Graphs
 
 
Dades de taula per Agost 22, 2017
Temps Temperatura Punt de rosada Pression baro Vent Wind Speed RĂ fegues de vent Humitat Rainfall Rate (Hourly)
00:03 73.8 °F /  23.2 °C 63 °F /  17.2 °C 30 in /  1016.8 hPa SW 1.2 mph /  1.9 km/h   69 % 0 in /  0.0 mm
00:05 70.2 °F /  21.2 °C 64.8 °F /  18.2 °C 30 in /  1015.8 hPa Calm   1 mph /  1.6 km/h 83 % 0 in /  0.0 mm
00:15 70.2 °F /  21.2 °C 64.8 °F /  18.2 °C 30 in /  1015.8 hPa Calm     83 % 0 in /  0.0 mm
00:25 70 °F /  21.1 °C 64.6 °F /  18.1 °C 30 in /  1015.8 hPa WNW 1 mph /  1.6 km/h 1 mph /  1.6 km/h 83 % 0 in /  0.0 mm
00:35 69.6 °F /  20.9 °C 64.2 °F /  17.9 °C 30 in /  1015.8 hPa WNW 1 mph /  1.6 km/h 1 mph /  1.6 km/h 83 % 0 in /  0.0 mm
00:45 69.3 °F /  20.7 °C 63.9 °F /  17.7 °C 30 in /  1015.8 hPa WSW 1 mph /  1.6 km/h 1 mph /  1.6 km/h 83 % 0 in /  0.0 mm
00:55 69.1 °F /  20.6 °C 63.7 °F /  17.6 °C 30 in /  1015.8 hPa Calm   1 mph /  1.6 km/h 83 % 0 in /  0.0 mm
01:05 68.9 °F /  20.5 °C 63.5 °F /  17.5 °C 30 in /  1015.8 hPa Calm   1 mph /  1.6 km/h 83 % 0 in /  0.0 mm
01:15 68.7 °F /  20.4 °C 63.7 °F /  17.6 °C 30 in /  1015.8 hPa Calm     84 % 0 in /  0.0 mm
01:25 68.5 °F /  20.3 °C 63.5 °F /  17.5 °C 30 in /  1015.8 hPa Calm     84 % 0 in /  0.0 mm
01:35 68 °F /  20.0 °C 62.6 °F /  17.0 °C 30 in /  1015.8 hPa SW 2 mph /  3.2 km/h 2 mph /  3.2 km/h 83 % 0 in /  0.0 mm
01:45 67.5 °F /  19.7 °C 62.1 °F /  16.7 °C 30 in /  1015.8 hPa SW 2 mph /  3.2 km/h 3 mph /  4.8 km/h 83 % 0 in /  0.0 mm
01:55 67.5 °F /  19.7 °C 62.4 °F /  16.9 °C 30 in /  1015.8 hPa WSW 2 mph /  3.2 km/h 2 mph /  3.2 km/h 84 % 0 in /  0.0 mm
02:05 67.5 °F /  19.7 °C 62.8 °F /  17.1 °C 30 in /  1015.8 hPa Calm   2 mph /  3.2 km/h 85 % 0 in /  0.0 mm
02:15 67.6 °F /  19.8 °C 63 °F /  17.2 °C 30 in /  1015.8 hPa WSW 1 mph /  1.6 km/h 2 mph /  3.2 km/h 85 % 0 in /  0.0 mm
02:25 67.5 °F /  19.7 °C 62.8 °F /  17.1 °C 30 in /  1015.8 hPa Calm   1 mph /  1.6 km/h 85 % 0 in /  0.0 mm
02:35 67.5 °F /  19.7 °C 62.8 °F /  17.1 °C 30 in /  1015.8 hPa Calm     85 % 0 in /  0.0 mm
02:45 66.7 °F /  19.3 °C 61.7 °F /  16.5 °C 30 in /  1015.8 hPa North 2 mph /  3.2 km/h 2 mph /  3.2 km/h 84 % 0 in /  0.0 mm
03:05 66.6 °F /  19.2 °C 61.9 °F /  16.6 °C 30 in /  1015.8 hPa Calm   1 mph /  1.6 km/h 85 % 0 in /  0.0 mm
03:15 66.2 °F /  19.0 °C 61.5 °F /  16.4 °C 30 in /  1015.8 hPa Calm   2 mph /  3.2 km/h 85 % 0 in /  0.0 mm
03:25 66 °F /  18.9 °C 61.7 °F /  16.5 °C 30 in /  1015.8 hPa SW 2 mph /  3.2 km/h 3 mph /  4.8 km/h 86 % 0 in /  0.0 mm
03:35 66 °F /  18.9 °C 61.7 °F /  16.5 °C 30 in /  1015.8 hPa SW 2 mph /  3.2 km/h 2 mph /  3.2 km/h 86 % 0 in /  0.0 mm
03:45 66.2 °F /  19.0 °C 61.9 °F /  16.6 °C 30 in /  1015.8 hPa WSW 1 mph /  1.6 km/h 2 mph /  3.2 km/h 86 % 0 in /  0.0 mm
03:55 66.4 °F /  19.1 °C 62.1 °F /  16.7 °C 30 in /  1015.8 hPa WSW 1 mph /  1.6 km/h 2 mph /  3.2 km/h 86 % 0 in /  0.0 mm
04:05 66.4 °F /  19.1 °C 62.1 °F /  16.7 °C 30 in /  1015.8 hPa SW 2 mph /  3.2 km/h 2 mph /  3.2 km/h 86 % 0 in /  0.0 mm
04:15 67.3 °F /  19.6 °C 63.3 °F /  17.4 °C 30 in /  1015.8 hPa Calm   2 mph /  3.2 km/h 87 % 0 in /  0.0 mm
04:25 69.3 °F /  20.7 °C 64.9 °F /  18.3 °C 30 in /  1015.8 hPa Calm   2 mph /  3.2 km/h 86 % 0 in /  0.0 mm
04:35 70 °F /  21.1 °C 64.6 °F /  18.1 °C 30 in /  1015.8 hPa East 1 mph /  1.6 km/h 2 mph /  3.2 km/h 83 % 0 in /  0.0 mm
04:45 71.6 °F /  22.0 °C 65.5 °F /  18.6 °C 30 in /  1016.8 hPa ENE 1 mph /  1.6 km/h 2 mph /  3.2 km/h 81 % 0 in /  0.0 mm
04:55 72.9 °F /  22.7 °C 66 °F /  18.9 °C 30 in /  1016.8 hPa ENE 1 mph /  1.6 km/h 2 mph /  3.2 km/h 79 % 0 in /  0.0 mm
05:05 72.9 °F /  22.7 °C 66 °F /  18.9 °C 30 in /  1015.8 hPa SSW 1 mph /  1.6 km/h 2 mph /  3.2 km/h 79 % 0 in /  0.0 mm
05:15 73.4 °F /  23.0 °C 65.5 °F /  18.6 °C 30 in /  1016.8 hPa SSW 1 mph /  1.6 km/h 2 mph /  3.2 km/h 76 % 0 in /  0.0 mm
05:25 73 °F /  22.8 °C 65.5 °F /  18.6 °C 30 in /  1016.8 hPa SW 2 mph /  3.2 km/h 3 mph /  4.8 km/h 77 % 0 in /  0.0 mm
05:35 73.8 °F /  23.2 °C 65.3 °F /  18.5 °C 30 in /  1015.8 hPa WSW 2 mph /  3.2 km/h 3 mph /  4.8 km/h 75 % 0 in /  0.0 mm
05:45 75.7 °F /  24.3 °C 66.6 °F /  19.2 °C 30 in /  1015.8 hPa South 1 mph /  1.6 km/h 3 mph /  4.8 km/h 73 % 0 in /  0.0 mm
05:55 77.5 °F /  25.3 °C 66.9 °F /  19.4 °C 30 in /  1015.8 hPa SE 1 mph /  1.6 km/h 3 mph /  4.8 km/h 70 % 0 in /  0.0 mm
11:03 81 °F /  27.2 °C 65.8 °F /  18.8 °C 30 in /  1015.8 hPa SW 5.8 mph /  9.3 km/h 5.8 mph /  9.3 km/h 60 % 0 in /  0.0 mm
11:04 81 °F /  27.2 °C 65.8 °F /  18.8 °C 30 in /  1015.8 hPa SW 5.8 mph /  9.3 km/h 5.8 mph /  9.3 km/h 60 % 0 in /  0.0 mm
11:05 81 °F /  27.2 °C 65.8 °F /  18.8 °C 30 in /  1015.8 hPa WSW 5.8 mph /  9.3 km/h 5.8 mph /  9.3 km/h 60 % 0 in /  0.0 mm
11:10 81.5 °F /  27.5 °C 66.4 °F /  19.1 °C 30 in /  1015.8 hPa SW 5.8 mph /  9.3 km/h 5.8 mph /  9.3 km/h 60 % 0 in /  0.0 mm
11:15 82.6 °F /  28.1 °C 66.7 °F /  19.3 °C 30 in /  1015.8 hPa West 5.9 mph /  9.5 km/h 5.9 mph /  9.5 km/h 59 % 0 in /  0.0 mm
11:20 82.6 °F /  28.1 °C 66.7 °F /  19.3 °C 30 in /  1015.8 hPa SW 5.8 mph /  9.3 km/h 5.8 mph /  9.3 km/h 59 % 0 in /  0.0 mm
11:25 83.1 °F /  28.4 °C 67.3 °F /  19.6 °C 30 in /  1015.8 hPa East 3.5 mph /  5.6 km/h 3.5 mph /  5.6 km/h 59 % 0 in /  0.0 mm
11:30 83.7 °F /  28.7 °C 67.3 °F /  19.6 °C 30 in /  1015.8 hPa SSW 5.8 mph /  9.3 km/h 5.8 mph /  9.3 km/h 58 % 0 in /  0.0 mm
11:35 85.3 °F /  29.6 °C 68.4 °F /  20.2 °C 30 in /  1015.8 hPa West 3.8 mph /  6.1 km/h 3.8 mph /  6.1 km/h 57 % 0 in /  0.0 mm
11:40 84.6 °F /  29.2 °C 67.6 °F /  19.8 °C 30 in /  1015.8 hPa WSW 4.6 mph /  7.4 km/h 4.6 mph /  7.4 km/h 57 % 0 in /  0.0 mm
11:45 84.6 °F /  29.2 °C 67.1 °F /  19.5 °C 30 in /  1015.8 hPa SW 3.5 mph /  5.6 km/h 3.5 mph /  5.6 km/h 56 % 0 in /  0.0 mm
11:50 85.6 °F /  29.8 °C 67.6 °F /  19.8 °C 30 in /  1015.8 hPa West 5.8 mph /  9.3 km/h 5.8 mph /  9.3 km/h 55 % 0 in /  0.0 mm
11:55 85.5 °F /  29.7 °C 66.9 °F /  19.4 °C 30 in /  1015.8 hPa WSW 5.8 mph /  9.3 km/h 5.8 mph /  9.3 km/h 54 % 0 in /  0.0 mm
12:00 85.3 °F /  29.6 °C 66.2 °F /  19.0 °C 30 in /  1015.8 hPa SW 4.9 mph /  7.9 km/h 4.9 mph /  7.9 km/h 53 % 0 in /  0.0 mm
12:05 85.3 °F /  29.6 °C 66.2 °F /  19.0 °C 30 in /  1015.8 hPa SW 6.9 mph /  11.1 km/h 6.9 mph /  11.1 km/h 53 % 0 in /  0.0 mm
12:10 86.4 °F /  30.2 °C 66.7 °F /  19.3 °C 30 in /  1015.8 hPa WSW 5.8 mph /  9.3 km/h 5.8 mph /  9.3 km/h 52 % 0 in /  0.0 mm
12:15 86.9 °F /  30.5 °C 66.6 °F /  19.2 °C 30 in /  1014.8 hPa SSW 8.1 mph /  13.0 km/h 8.1 mph /  13.0 km/h 51 % 0 in /  0.0 mm
12:20 86.5 °F /  30.3 °C 65.7 °F /  18.7 °C 30 in /  1014.8 hPa SW 6.4 mph /  10.3 km/h 6.4 mph /  10.3 km/h 50 % 0 in /  0.0 mm
12:25 86.9 °F /  30.5 °C 65.5 °F /  18.6 °C 30 in /  1014.8 hPa SSW 3.6 mph /  5.8 km/h 3.6 mph /  5.8 km/h 49 % 0 in /  0.0 mm
12:30 87.3 °F /  30.7 °C 65.8 °F /  18.8 °C 30 in /  1015.8 hPa South 8.1 mph /  13.0 km/h 8.1 mph /  13.0 km/h 49 % 0 in /  0.0 mm
12:35 86.9 °F /  30.5 °C 64.8 °F /  18.2 °C 30 in /  1015.8 hPa SW 10.4 mph /  16.7 km/h 10.4 mph /  16.7 km/h 48 % 0 in /  0.0 mm
12:40 87.4 °F /  30.8 °C 65.3 °F /  18.5 °C 30 in /  1015.8 hPa SW 4.6 mph /  7.4 km/h 4.6 mph /  7.4 km/h 48 % 0 in /  0.0 mm
12:45 88 °F /  31.1 °C 65.8 °F /  18.8 °C 30 in /  1015.8 hPa WSW 5.8 mph /  9.3 km/h 5.8 mph /  9.3 km/h 48 % 0 in /  0.0 mm
12:50 88.7 °F /  31.5 °C 65.8 °F /  18.8 °C 30 in /  1015.8 hPa South 8.1 mph /  13.0 km/h 8.1 mph /  13.0 km/h 47 % 0 in /  0.0 mm
12:55 88.9 °F /  31.6 °C 66 °F /  18.9 °C 30 in /  1015.8 hPa SW 5.8 mph /  9.3 km/h 5.8 mph /  9.3 km/h 47 % 0 in /  0.0 mm
13:00 89.1 °F /  31.7 °C 66.2 °F /  19.0 °C 30 in /  1015.8 hPa SSW 5.8 mph /  9.3 km/h 5.8 mph /  9.3 km/h 47 % 0 in /  0.0 mm
13:05 89.6 °F /  32.0 °C 66.7 °F /  19.3 °C 30 in /  1015.8 hPa WSW 4.6 mph /  7.4 km/h 4.6 mph /  7.4 km/h 47 % 0 in /  0.0 mm
13:10 90.9 °F /  32.7 °C 67.8 °F /  19.9 °C 30 in /  1015.8 hPa SW 5.8 mph /  9.3 km/h 5.8 mph /  9.3 km/h 47 % 0 in /  0.0 mm
13:15 91.4 °F /  33.0 °C 67.6 °F /  19.8 °C 30 in /  1014.8 hPa SSW 4.7 mph /  7.6 km/h 4.7 mph /  7.6 km/h 46 % 0 in /  0.0 mm
13:20 89.8 °F /  32.1 °C 66.2 °F /  19.0 °C 30 in /  1014.8 hPa South 6.9 mph /  11.1 km/h 6.9 mph /  11.1 km/h 46 % 0 in /  0.0 mm
13:25 90 °F /  32.2 °C 66.4 °F /  19.1 °C 30 in /  1014.8 hPa SW 3.8 mph /  6.1 km/h 3.8 mph /  6.1 km/h 46 % 0 in /  0.0 mm
13:30 90 °F /  32.2 °C 66.4 °F /  19.1 °C 30 in /  1014.8 hPa SW 9.2 mph /  14.8 km/h 9.2 mph /  14.8 km/h 46 % 0 in /  0.0 mm
13:35 90.9 °F /  32.7 °C 67.3 °F /  19.6 °C 30 in /  1014.8 hPa SW 8.5 mph /  13.7 km/h 8.5 mph /  13.7 km/h 46 % 0 in /  0.0 mm
13:40 90.1 °F /  32.3 °C 66.6 °F /  19.2 °C 30 in /  1014.8 hPa South 5.8 mph /  9.3 km/h 5.8 mph /  9.3 km/h 46 % 0 in /  0.0 mm
13:45 90.3 °F /  32.4 °C 66 °F /  18.9 °C 30 in /  1014.8 hPa SW 5.8 mph /  9.3 km/h 5.8 mph /  9.3 km/h 45 % 0 in /  0.0 mm
13:50 90 °F /  32.2 °C 65.8 °F /  18.8 °C 30 in /  1014.8 hPa WSW 6.9 mph /  11.1 km/h 6.9 mph /  11.1 km/h 45 % 0 in /  0.0 mm
13:55 90 °F /  32.2 °C 65.8 °F /  18.8 °C 30 in /  1014.8 hPa SSW 5.8 mph /  9.3 km/h 5.8 mph /  9.3 km/h 45 % 0 in /  0.0 mm
14:00 90 °F /  32.2 °C 65.8 °F /  18.8 °C 30 in /  1014.8 hPa West 7.4 mph /  11.9 km/h 7.4 mph /  11.9 km/h 45 % 0 in /  0.0 mm
14:05 90.3 °F /  32.4 °C 66 °F /  18.9 °C 30 in /  1014.8 hPa SSW 6.9 mph /  11.1 km/h 6.9 mph /  11.1 km/h 45 % 0 in /  0.0 mm
14:10 90.1 °F /  32.3 °C 65.8 °F /  18.8 °C 30 in /  1014.8 hPa South 8.1 mph /  13.0 km/h 8.1 mph /  13.0 km/h 45 % 0 in /  0.0 mm
14:15 89.8 °F /  32.1 °C 64.9 °F /  18.3 °C 30 in /  1014.8 hPa SSW 6.9 mph /  11.1 km/h 6.9 mph /  11.1 km/h 44 % 0 in /  0.0 mm
14:20 90.5 °F /  32.5 °C 66.4 °F /  19.1 °C 30 in /  1014.8 hPa SSW 5.8 mph /  9.3 km/h 5.8 mph /  9.3 km/h 45 % 0 in /  0.0 mm
14:25 90.7 °F /  32.6 °C 66.4 °F /  19.1 °C 30 in /  1014.8 hPa SW 5.8 mph /  9.3 km/h 5.8 mph /  9.3 km/h 45 % 0 in /  0.0 mm
14:30 91 °F /  32.8 °C 66.7 °F /  19.3 °C 30 in /  1014.8 hPa SW 7.4 mph /  11.9 km/h 7.4 mph /  11.9 km/h 45 % 0 in /  0.0 mm
14:35 90.9 °F /  32.7 °C 65.8 °F /  18.8 °C 30 in /  1014.8 hPa SSW 5.8 mph /  9.3 km/h 5.8 mph /  9.3 km/h 44 % 0 in /  0.0 mm
14:40 90.9 °F /  32.7 °C 65.8 °F /  18.8 °C 30 in /  1014.8 hPa WSW 10.9 mph /  17.5 km/h 10.9 mph /  17.5 km/h 44 % 0 in /  0.0 mm
14:45 90.7 °F /  32.6 °C 65.8 °F /  18.8 °C 30 in /  1014.8 hPa SW 8.1 mph /  13.0 km/h 8.1 mph /  13.0 km/h 44 % 0 in /  0.0 mm
14:50 91.2 °F /  32.9 °C 65.7 °F /  18.7 °C 30 in /  1014.8 hPa SSW 5.8 mph /  9.3 km/h 5.8 mph /  9.3 km/h 43 % 0 in /  0.0 mm
14:51 91.2 °F /  32.9 °C 65.7 °F /  18.7 °C 30 in /  1014.8 hPa SW 9.2 mph /  14.8 km/h 9.2 mph /  14.8 km/h 43 % 0 in /  0.0 mm
14:56 90.5 °F /  32.5 °C 64.2 °F /  17.9 °C 30 in /  1014.8 hPa West 10.4 mph /  16.7 km/h 10.4 mph /  16.7 km/h 42 % 0 in /  0.0 mm
15:01 90.7 °F /  32.6 °C 65.1 °F /  18.4 °C 30 in /  1014.8 hPa SW 10.4 mph /  16.7 km/h 10.4 mph /  16.7 km/h 43 % 0 in /  0.0 mm
15:06 90.7 °F /  32.6 °C 65.1 °F /  18.4 °C 30 in /  1014.8 hPa West 10.4 mph /  16.7 km/h 10.4 mph /  16.7 km/h 43 % 0 in /  0.0 mm
15:11 90.7 °F /  32.6 °C 64.4 °F /  18.0 °C 30 in /  1014.8 hPa SW 9.2 mph /  14.8 km/h 9.2 mph /  14.8 km/h 42 % 0 in /  0.0 mm
15:16 90.3 °F /  32.4 °C 64 °F /  17.8 °C 30 in /  1014.8 hPa NW 8.1 mph /  13.0 km/h 8.1 mph /  13.0 km/h 42 % 0 in /  0.0 mm
15:21 90.3 °F /  32.4 °C 64 °F /  17.8 °C 30 in /  1014.8 hPa WSW 10.4 mph /  16.7 km/h 10.4 mph /  16.7 km/h 42 % 0 in /  0.0 mm
15:26 89.6 °F /  32.0 °C 63.5 °F /  17.5 °C 30 in /  1014.8 hPa SW 9.2 mph /  14.8 km/h 9.2 mph /  14.8 km/h 42 % 0 in /  0.0 mm
15:31 89.4 °F /  31.9 °C 64 °F /  17.8 °C 30 in /  1014.8 hPa SW 7.1 mph /  11.4 km/h 7.1 mph /  11.4 km/h 43 % 0 in /  0.0 mm
15:36 89.2 °F /  31.8 °C 63.9 °F /  17.7 °C 30 in /  1014.8 hPa WSW 13.8 mph /  22.2 km/h 13.8 mph /  22.2 km/h 43 % 0 in /  0.0 mm
15:41 89.4 °F /  31.9 °C 64 °F /  17.8 °C 30 in /  1014.8 hPa West 8.5 mph /  13.7 km/h 8.5 mph /  13.7 km/h 43 % 0 in /  0.0 mm
15:46 89.1 °F /  31.7 °C 63.7 °F /  17.6 °C 30 in /  1014.8 hPa SW 8.1 mph /  13.0 km/h 8.1 mph /  13.0 km/h 43 % 0 in /  0.0 mm
15:51 89.6 °F /  32.0 °C 64 °F /  17.8 °C 30 in /  1014.8 hPa SSW 11.5 mph /  18.5 km/h 11.5 mph /  18.5 km/h 43 % 0 in /  0.0 mm
15:56 89.8 °F /  32.1 °C 64.2 °F /  17.9 °C 29.9 in /  1013.8 hPa SW 6.9 mph /  11.1 km/h 6.9 mph /  11.1 km/h 43 % 0 in /  0.0 mm
16:01 90.1 °F /  32.3 °C 64.6 °F /  18.1 °C 29.9 in /  1013.8 hPa SW 6 mph /  9.7 km/h 6 mph /  9.7 km/h 43 % 0 in /  0.0 mm
16:06 89.6 °F /  32.0 °C 63.5 °F /  17.5 °C 29.9 in /  1013.8 hPa SSW 12.7 mph /  20.4 km/h 12.7 mph /  20.4 km/h 42 % 0 in /  0.0 mm
16:11 90.1 °F /  32.3 °C 64.6 °F /  18.1 °C 30 in /  1014.8 hPa WSW 10.4 mph /  16.7 km/h 10.4 mph /  16.7 km/h 43 % 0 in /  0.0 mm
16:16 89.8 °F /  32.1 °C 63.7 °F /  17.6 °C 30 in /  1014.8 hPa SW 8.1 mph /  13.0 km/h 8.1 mph /  13.0 km/h 42 % 0 in /  0.0 mm
16:21 89.4 °F /  31.9 °C 64 °F /  17.8 °C 30 in /  1014.8 hPa SSW 8.7 mph /  14.0 km/h 8.7 mph /  14.0 km/h 43 % 0 in /  0.0 mm
16:26 89.2 °F /  31.8 °C 63.9 °F /  17.7 °C 30 in /  1014.8 hPa SW 6.7 mph /  10.8 km/h 6.7 mph /  10.8 km/h 43 % 0 in /  0.0 mm
16:27 89.4 °F /  31.9 °C 64 °F /  17.8 °C 30 in /  1014.8 hPa South 6.9 mph /  11.1 km/h 6.9 mph /  11.1 km/h 43 % 0 in /  0.0 mm
16:32 88.2 °F /  31.2 °C 62.8 °F /  17.1 °C 30 in /  1014.8 hPa SSW 10.4 mph /  16.7 km/h 10.4 mph /  16.7 km/h 43 % 0 in /  0.0 mm
16:37 87.8 °F /  31.0 °C 62.4 °F /  16.9 °C 30 in /  1014.8 hPa SW 10.4 mph /  16.7 km/h 10.4 mph /  16.7 km/h 43 % 0 in /  0.0 mm
16:42 88.3 °F /  31.3 °C 63 °F /  17.2 °C 29.9 in /  1013.8 hPa SW 5.9 mph /  9.5 km/h 5.9 mph /  9.5 km/h 43 % 0 in /  0.0 mm
16:47 88.3 °F /  31.3 °C 63 °F /  17.2 °C 29.9 in /  1013.8 hPa South 10.4 mph /  16.7 km/h 10.4 mph /  16.7 km/h 43 % 0 in /  0.0 mm
16:52 87.8 °F /  31.0 °C 62.4 °F /  16.9 °C 29.9 in /  1013.8 hPa SSW 5.8 mph /  9.3 km/h 5.8 mph /  9.3 km/h 43 % 0 in /  0.0 mm
16:57 88.2 °F /  31.2 °C 62.8 °F /  17.1 °C 29.9 in /  1013.8 hPa West 6.9 mph /  11.1 km/h 6.9 mph /  11.1 km/h 43 % 0 in /  0.0 mm
17:02 88.5 °F /  31.4 °C 63.1 °F /  17.3 °C 29.9 in /  1013.8 hPa WSW 7.6 mph /  12.2 km/h 7.6 mph /  12.2 km/h 43 % 0 in /  0.0 mm
17:07 88.2 °F /  31.2 °C 62.8 °F /  17.1 °C 29.9 in /  1013.8 hPa South 10.4 mph /  16.7 km/h 10.4 mph /  16.7 km/h 43 % 0 in /  0.0 mm
17:12 88.3 °F /  31.3 °C 63 °F /  17.2 °C 29.9 in /  1013.8 hPa SW 4.6 mph /  7.4 km/h 4.6 mph /  7.4 km/h 43 % 0 in /  0.0 mm
17:17 88 °F /  31.1 °C 62.8 °F /  17.1 °C 29.9 in /  1013.8 hPa South 10.4 mph /  16.7 km/h 10.4 mph /  16.7 km/h 43 % 0 in /  0.0 mm
17:22 87.8 °F /  31.0 °C 62.4 °F /  16.9 °C 29.9 in /  1013.8 hPa South 10 mph /  16.1 km/h 10 mph /  16.1 km/h 43 % 0 in /  0.0 mm
17:27 87.4 °F /  30.8 °C 62.8 °F /  17.1 °C 29.9 in /  1013.8 hPa WSW 8.1 mph /  13.0 km/h 8.1 mph /  13.0 km/h 44 % 0 in /  0.0 mm
17:32 88 °F /  31.1 °C 62.8 °F /  17.1 °C 29.9 in /  1013.8 hPa SSW 4.6 mph /  7.4 km/h 4.6 mph /  7.4 km/h 43 % 0 in /  0.0 mm
17:37 88.2 °F /  31.2 °C 63.5 °F /  17.5 °C 29.9 in /  1013.8 hPa ENE 6.9 mph /  11.1 km/h 6.9 mph /  11.1 km/h 44 % 0 in /  0.0 mm
17:42 87.3 °F /  30.7 °C 62.8 °F /  17.1 °C 29.9 in /  1013.8 hPa WSW 12.7 mph /  20.4 km/h 12.7 mph /  20.4 km/h 44 % 0 in /  0.0 mm
17:47 86.7 °F /  30.4 °C 62.2 °F /  16.8 °C 29.9 in /  1013.8 hPa SW 9.2 mph /  14.8 km/h 9.2 mph /  14.8 km/h 44 % 0 in /  0.0 mm
17:52 86.9 °F /  30.5 °C 63 °F /  17.2 °C 29.9 in /  1013.8 hPa SW 6.9 mph /  11.1 km/h 6.9 mph /  11.1 km/h 45 % 0 in /  0.0 mm
17:57 86.4 °F /  30.2 °C 61.9 °F /  16.6 °C 29.9 in /  1013.8 hPa SW 9.2 mph /  14.8 km/h 9.2 mph /  14.8 km/h 44 % 0 in /  0.0 mm
18:02 85.6 °F /  29.8 °C 61.9 °F /  16.6 °C 29.9 in /  1013.8 hPa SW 7.1 mph /  11.4 km/h 7.1 mph /  11.4 km/h 45 % 0 in /  0.0 mm
18:07 85.3 °F /  29.6 °C 62.2 °F /  16.8 °C 29.9 in /  1013.8 hPa WSW 6.9 mph /  11.1 km/h 6.9 mph /  11.1 km/h 46 % 0 in /  0.0 mm
18:12 86.4 °F /  30.2 °C 62.4 °F /  16.9 °C 29.9 in /  1013.8 hPa SSE 4.6 mph /  7.4 km/h 4.6 mph /  7.4 km/h 45 % 0 in /  0.0 mm
18:17 85.8 °F /  29.9 °C 62.6 °F /  17.0 °C 29.9 in /  1013.8 hPa WSW 6.9 mph /  11.1 km/h 6.9 mph /  11.1 km/h 46 % 0 in /  0.0 mm
18:22 85.1 °F /  29.5 °C 62.1 °F /  16.7 °C 29.9 in /  1013.8 hPa SW 9.2 mph /  14.8 km/h 9.2 mph /  14.8 km/h 46 % 0 in /  0.0 mm
18:27 84.6 °F /  29.2 °C 61.5 °F /  16.4 °C 29.9 in /  1013.8 hPa South 12.7 mph /  20.4 km/h 12.7 mph /  20.4 km/h 46 % 0 in /  0.0 mm
18:32 84.9 °F /  29.4 °C 62.4 °F /  16.9 °C 29.9 in /  1013.8 hPa SW 5.8 mph /  9.3 km/h 5.8 mph /  9.3 km/h 47 % 0 in /  0.0 mm
18:37 84.9 °F /  29.4 °C 62.4 °F /  16.9 °C 29.9 in /  1013.8 hPa South 7.6 mph /  12.2 km/h 7.6 mph /  12.2 km/h 47 % 0 in /  0.0 mm
18:42 84.6 °F /  29.2 °C 62.1 °F /  16.7 °C 29.9 in /  1013.8 hPa SSW 5.8 mph /  9.3 km/h 5.8 mph /  9.3 km/h 47 % 0 in /  0.0 mm
18:47 83.8 °F /  28.8 °C 62.1 °F /  16.7 °C 29.9 in /  1013.8 hPa SW 8.1 mph /  13.0 km/h 8.1 mph /  13.0 km/h 48 % 0 in /  0.0 mm
18:52 83.7 °F /  28.7 °C 61.9 °F /  16.6 °C 29.9 in /  1013.8 hPa West 9.2 mph /  14.8 km/h 9.2 mph /  14.8 km/h 48 % 0 in /  0.0 mm
18:57 83.3 °F /  28.5 °C 61.5 °F /  16.4 °C 29.9 in /  1013.8 hPa SSW 6.2 mph /  10.0 km/h 6.2 mph /  10.0 km/h 48 % 0 in /  0.0 mm
19:02 83.3 °F /  28.5 °C 61.5 °F /  16.4 °C 29.9 in /  1013.8 hPa SSW 8.1 mph /  13.0 km/h 8.1 mph /  13.0 km/h 48 % 0 in /  0.0 mm
19:07 82.6 °F /  28.1 °C 61 °F /  16.1 °C 29.9 in /  1013.8 hPa SW 4.6 mph /  7.4 km/h 4.6 mph /  7.4 km/h 48 % 0 in /  0.0 mm
19:12 82.6 °F /  28.1 °C 61.5 °F /  16.4 °C 29.9 in /  1013.8 hPa South 6.9 mph /  11.1 km/h 6.9 mph /  11.1 km/h 49 % 0 in /  0.0 mm
19:17 82.4 °F /  28.0 °C 61.3 °F /  16.3 °C 29.9 in /  1013.8 hPa SSW 6.9 mph /  11.1 km/h 6.9 mph /  11.1 km/h 49 % 0 in /  0.0 mm
19:22 82.6 °F /  28.1 °C 61.5 °F /  16.4 °C 29.9 in /  1013.8 hPa South 4.6 mph /  7.4 km/h 4.6 mph /  7.4 km/h 49 % 0 in /  0.0 mm
19:27 82 °F /  27.8 °C 61 °F /  16.1 °C 29.9 in /  1013.8 hPa SW 5.8 mph /  9.3 km/h 5.8 mph /  9.3 km/h 49 % 0 in /  0.0 mm
19:32 81.7 °F /  27.6 °C 61.2 °F /  16.2 °C 29.9 in /  1013.8 hPa WSW 6.9 mph /  11.1 km/h 6.9 mph /  11.1 km/h 50 % 0 in /  0.0 mm
19:37 81.5 °F /  27.5 °C 61.2 °F /  16.2 °C 29.9 in /  1013.8 hPa SSW 4.6 mph /  7.4 km/h 4.6 mph /  7.4 km/h 50 % 0 in /  0.0 mm
19:42 81 °F /  27.2 °C 61.2 °F /  16.2 °C 29.9 in /  1013.8 hPa WSW 5.8 mph /  9.3 km/h 5.8 mph /  9.3 km/h 51 % 0 in /  0.0 mm
19:47 80.6 °F /  27.0 °C 60.8 °F /  16.0 °C 29.9 in /  1013.8 hPa SSE 6.9 mph /  11.1 km/h 6.9 mph /  11.1 km/h 51 % 0 in /  0.0 mm
19:52 80.4 °F /  26.9 °C 61.7 °F /  16.5 °C 29.9 in /  1013.8 hPa SW 6 mph /  9.7 km/h 6 mph /  9.7 km/h 53 % 0 in /  0.0 mm
19:57 79.9 °F /  26.6 °C 61.7 °F /  16.5 °C 29.9 in /  1013.8 hPa SSW 4.6 mph /  7.4 km/h 4.6 mph /  7.4 km/h 54 % 0 in /  0.0 mm
20:02 79.7 °F /  26.5 °C 61.5 °F /  16.4 °C 29.9 in /  1013.8 hPa WSW 6.2 mph /  10.0 km/h 6.2 mph /  10.0 km/h 54 % 0 in /  0.0 mm
20:07 79.5 °F /  26.4 °C 62.4 °F /  16.9 °C 29.9 in /  1013.8 hPa SW 8.1 mph /  13.0 km/h 8.1 mph /  13.0 km/h 56 % 0 in /  0.0 mm
20:12 79.2 °F /  26.2 °C 62.1 °F /  16.7 °C 29.9 in /  1013.8 hPa SW 9.2 mph /  14.8 km/h 9.2 mph /  14.8 km/h 56 % 0 in /  0.0 mm
20:15 72.5 °F /  22.5 °C 64 °F /  17.8 °C 30 in /  1015.8 hPa Calm   3 mph /  4.8 km/h 75 % 0 in /  0.0 mm
20:17 79 °F /  26.1 °C 61.9 °F /  16.6 °C 29.9 in /  1013.8 hPa SW 2.3 mph /  3.7 km/h 2.3 mph /  3.7 km/h 56 % 0 in /  0.0 mm
20:22 78.8 °F /  26.0 °C 62.2 °F /  16.8 °C 29.9 in /  1013.8 hPa SSW 4.6 mph /  7.4 km/h 4.6 mph /  7.4 km/h 57 % 0 in /  0.0 mm
20:25 72 °F /  22.2 °C 63.7 °F /  17.6 °C 30 in /  1015.8 hPa WSW 1 mph /  1.6 km/h 2 mph /  3.2 km/h 75 % 0 in /  0.0 mm
20:27 78.6 °F /  25.9 °C 62.6 °F /  17.0 °C 29.9 in /  1013.8 hPa South 5.8 mph /  9.3 km/h 5.8 mph /  9.3 km/h 58 % 0 in /  0.0 mm
20:32 78.4 °F /  25.8 °C 61.9 °F /  16.6 °C 29.9 in /  1013.8 hPa SSE 5.8 mph /  9.3 km/h 5.8 mph /  9.3 km/h 57 % 0 in /  0.0 mm
20:35 71.4 °F /  21.9 °C 63.5 °F /  17.5 °C 30 in /  1015.8 hPa SW 1 mph /  1.6 km/h 2 mph /  3.2 km/h 76 % 0 in /  0.0 mm
20:37 78.1 °F /  25.6 °C 62.6 °F /  17.0 °C 29.9 in /  1013.8 hPa SW 2.3 mph /  3.7 km/h 2.3 mph /  3.7 km/h 59 % 0 in /  0.0 mm
20:42 77.9 °F /  25.5 °C 62.4 °F /  16.9 °C 29.9 in /  1013.8 hPa WSW 3.5 mph /  5.6 km/h 3.5 mph /  5.6 km/h 59 % 0 in /  0.0 mm
20:45 71.4 °F /  21.9 °C 63.9 °F /  17.7 °C 30 in /  1014.8 hPa Calm   2 mph /  3.2 km/h 77 % 0 in /  0.0 mm
20:47 77.5 °F /  25.3 °C 62.1 °F /  16.7 °C 29.9 in /  1013.8 hPa SW 3.8 mph /  6.1 km/h 3.8 mph /  6.1 km/h 59 % 0 in /  0.0 mm
20:52 77.4 °F /  25.2 °C 62.4 °F /  16.9 °C 29.9 in /  1013.8 hPa WSW 2.4 mph /  3.9 km/h 2.4 mph /  3.9 km/h 60 % 0 in /  0.0 mm
20:55 71.2 °F /  21.8 °C 63.7 °F /  17.6 °C 30 in /  1014.8 hPa SW 1 mph /  1.6 km/h 2 mph /  3.2 km/h 77 % 0 in /  0.0 mm
20:57 77.2 °F /  25.1 °C 62.2 °F /  16.8 °C 29.9 in /  1013.8 hPa SW 3.5 mph /  5.6 km/h 3.5 mph /  5.6 km/h 60 % 0 in /  0.0 mm
21:02 76.8 °F /  24.9 °C 62.2 °F /  16.8 °C 29.9 in /  1013.8 hPa SW 3.5 mph /  5.6 km/h 3.5 mph /  5.6 km/h 61 % 0 in /  0.0 mm
21:05 71.2 °F /  21.8 °C 63.7 °F /  17.6 °C 30 in /  1015.8 hPa WSW 1 mph /  1.6 km/h 2 mph /  3.2 km/h 77 % 0 in /  0.0 mm
21:07 76.6 °F /  24.8 °C 62.6 °F /  17.0 °C 29.9 in /  1013.8 hPa SW 5.8 mph /  9.3 km/h 5.8 mph /  9.3 km/h 62 % 0 in /  0.0 mm
21:12 76.5 °F /  24.7 °C 62.4 °F /  16.9 °C 29.9 in /  1013.8 hPa SW 3.5 mph /  5.6 km/h 3.5 mph /  5.6 km/h 62 % 0 in /  0.0 mm
21:15 71.1 °F /  21.7 °C 63.9 °F /  17.7 °C 30 in /  1015.8 hPa WSW 2 mph /  3.2 km/h 2 mph /  3.2 km/h 78 % 0 in /  0.0 mm
21:17 76.3 °F /  24.6 °C 62.8 °F /  17.1 °C 29.9 in /  1013.8 hPa SW 3.5 mph /  5.6 km/h 3.5 mph /  5.6 km/h 63 % 0 in /  0.0 mm
21:22 75.9 °F /  24.4 °C 63 °F /  17.2 °C 29.9 in /  1013.8 hPa SW 2.6 mph /  4.2 km/h 2.6 mph /  4.2 km/h 64 % 0 in /  0.0 mm
21:25 70.9 °F /  21.6 °C 64 °F /  17.8 °C 30 in /  1015.8 hPa Calm   1 mph /  1.6 km/h 79 % 0 in /  0.0 mm
21:27 75.9 °F /  24.4 °C 63 °F /  17.2 °C 30 in /  1014.8 hPa SW 2.3 mph /  3.7 km/h 2.3 mph /  3.7 km/h 64 % 0 in /  0.0 mm
21:32 75.7 °F /  24.3 °C 62.8 °F /  17.1 °C 30 in /  1014.8 hPa SW 2.3 mph /  3.7 km/h 2.3 mph /  3.7 km/h 64 % 0 in /  0.0 mm
21:35 70.7 °F /  21.5 °C 64.2 °F /  17.9 °C 30 in /  1015.8 hPa Calm   1 mph /  1.6 km/h 80 % 0 in /  0.0 mm
21:37 75.4 °F /  24.1 °C 62.4 °F /  16.9 °C 30 in /  1014.8 hPa SW 3.5 mph /  5.6 km/h 3.5 mph /  5.6 km/h 64 % 0 in /  0.0 mm
21:42 75.2 °F /  24.0 °C 62.6 °F /  17.0 °C 30 in /  1014.8 hPa SW 2.6 mph /  4.2 km/h 2.6 mph /  4.2 km/h 65 % 0 in /  0.0 mm
21:45 70.2 °F /  21.2 °C 63 °F /  17.2 °C 30 in /  1015.8 hPa WNW 1 mph /  1.6 km/h 3 mph /  4.8 km/h 78 % 0 in /  0.0 mm
21:47 75 °F /  23.9 °C 63.3 °F /  17.4 °C 30 in /  1014.8 hPa SW 1.2 mph /  1.9 km/h 1.2 mph /  1.9 km/h 67 % 0 in /  0.0 mm
21:52 75 °F /  23.9 °C 63.3 °F /  17.4 °C 30 in /  1014.8 hPa SW 2.3 mph /  3.7 km/h 2.3 mph /  3.7 km/h 67 % 0 in /  0.0 mm
21:55 69.8 °F /  21.0 °C 62.6 °F /  17.0 °C 30 in /  1015.8 hPa NNE 1 mph /  1.6 km/h 2 mph /  3.2 km/h 78 % 0 in /  0.0 mm
21:57 74.8 °F /  23.8 °C 63.7 °F /  17.6 °C 30 in /  1014.8 hPa SW 2.3 mph /  3.7 km/h 2.3 mph /  3.7 km/h 68 % 0 in /  0.0 mm
22:02 74.7 °F /  23.7 °C 63.3 °F /  17.4 °C 30 in /  1014.8 hPa WSW 2.3 mph /  3.7 km/h 2.3 mph /  3.7 km/h 68 % 0 in /  0.0 mm
22:05 69.4 °F /  20.8 °C 63 °F /  17.2 °C 30 in /  1015.8 hPa Calm   2 mph /  3.2 km/h 80 % 0 in /  0.0 mm
22:07 74.7 °F /  23.7 °C 63.9 °F /  17.7 °C 30 in /  1014.8 hPa SW 1.2 mph /  1.9 km/h 1.4 mph /  2.3 km/h 69 % 0 in /  0.0 mm
22:12 74.5 °F /  23.6 °C 63.7 °F /  17.6 °C 30 in /  1014.8 hPa WSW 2.3 mph /  3.7 km/h 2.3 mph /  3.7 km/h 69 % 0 in /  0.0 mm
22:15 69.3 °F /  20.7 °C 62.8 °F /  17.1 °C 30 in /  1014.8 hPa WSW 1 mph /  1.6 km/h 2 mph /  3.2 km/h 80 % 0 in /  0.0 mm
22:17 74.5 °F /  23.6 °C 63.7 °F /  17.6 °C 30 in /  1014.8 hPa WSW 2.3 mph /  3.7 km/h 2.3 mph /  3.7 km/h 69 % 0 in /  0.0 mm
22:22 74.3 °F /  23.5 °C 63.5 °F /  17.5 °C 30 in /  1014.8 hPa SW 2.3 mph /  3.7 km/h 2.3 mph /  3.7 km/h 69 % 0 in /  0.0 mm
22:25 68.7 °F /  20.4 °C 62.8 °F /  17.1 °C 30 in /  1014.8 hPa Calm   2 mph /  3.2 km/h 81 % 0 in /  0.0 mm
22:27 74.1 °F /  23.4 °C 63.7 °F /  17.6 °C 30 in /  1014.8 hPa SW 1.2 mph /  1.9 km/h   70 % 0 in /  0.0 mm
22:32 73.9 °F /  23.3 °C 63.5 °F /  17.5 °C 30 in /  1014.8 hPa WSW 1.4 mph /  2.3 km/h   70 % 0 in /  0.0 mm
22:35 68.7 °F /  20.4 °C 62.8 °F /  17.1 °C 30 in /  1014.8 hPa Calm   1 mph /  1.6 km/h 81 % 0 in /  0.0 mm
22:37 73.8 °F /  23.2 °C 63.3 °F /  17.4 °C 30 in /  1014.8 hPa SW 1.2 mph /  1.9 km/h   70 % 0 in /  0.0 mm
22:42 73.6 °F /  23.1 °C 63.1 °F /  17.3 °C 30 in /  1014.8 hPa SW 2.3 mph /  3.7 km/h 2.3 mph /  3.7 km/h 70 % 0 in /  0.0 mm
22:45 68.7 °F /  20.4 °C 62.8 °F /  17.1 °C 30 in /  1014.8 hPa NNW 1 mph /  1.6 km/h 2 mph /  3.2 km/h 81 % 0 in /  0.0 mm
22:47 73.6 °F /  23.1 °C 63.1 °F /  17.3 °C 30 in /  1014.8 hPa SW 2.3 mph /  3.7 km/h 2.3 mph /  3.7 km/h 70 % 0 in /  0.0 mm
22:52 73.4 °F /  23.0 °C 63.3 °F /  17.4 °C 30 in /  1014.8 hPa Calm     71 % 0 in /  0.0 mm
22:55 68.9 °F /  20.5 °C 63.1 °F /  17.3 °C 30 in /  1014.8 hPa Calm   2 mph /  3.2 km/h 82 % 0 in /  0.0 mm
22:57 73.4 °F /  23.0 °C 63.3 °F /  17.4 °C 30 in /  1014.8 hPa WSW 1.6 mph /  2.6 km/h 1.6 mph /  2.6 km/h 71 % 0 in /  0.0 mm
23:02 73.4 °F /  23.0 °C 63.3 °F /  17.4 °C 30 in /  1014.8 hPa WSW 1.6 mph /  2.6 km/h 1.6 mph /  2.6 km/h 71 % 0 in /  0.0 mm
23:05 68.9 °F /  20.5 °C 63.1 °F /  17.3 °C 29.9 in /  1013.8 hPa NE 1 mph /  1.6 km/h 2 mph /  3.2 km/h 82 % 0 in /  0.0 mm
23:07 73.4 °F /  23.0 °C 63.9 °F /  17.7 °C 30 in /  1014.8 hPa WSW 1.2 mph /  1.9 km/h   72 % 0 in /  0.0 mm
23:12 73.4 °F /  23.0 °C 63.9 °F /  17.7 °C 30 in /  1014.8 hPa WSW 1.6 mph /  2.6 km/h 1.6 mph /  2.6 km/h 72 % 0 in /  0.0 mm
23:15 68.7 °F /  20.4 °C 63 °F /  17.2 °C 29.9 in /  1013.8 hPa ENE 2 mph /  3.2 km/h 3 mph /  4.8 km/h 82 % 0 in /  0.0 mm
23:17 73.4 °F /  23.0 °C 63.9 °F /  17.7 °C 30 in /  1014.8 hPa West 1.2 mph /  1.9 km/h 1.2 mph /  1.9 km/h 72 % 0 in /  0.0 mm
23:22 73.2 °F /  22.9 °C 63.7 °F /  17.6 °C 30 in /  1014.8 hPa WSW 1.2 mph /  1.9 km/h   72 % 0 in /  0.0 mm
23:25 67.8 °F /  19.9 °C 61.3 °F /  16.3 °C 29.9 in /  1013.8 hPa NE 3 mph /  4.8 km/h 4 mph /  6.4 km/h 80 % 0 in /  0.0 mm
23:27 73 °F /  22.8 °C 63.9 °F /  17.7 °C 30 in /  1015.8 hPa Calm     73 % 0 in /  0.0 mm
23:32 73 °F /  22.8 °C 63.9 °F /  17.7 °C 30 in /  1015.8 hPa Calm     73 % 0 in /  0.0 mm
23:35 67.6 °F /  19.8 °C 61.9 °F /  16.6 °C 30 in /  1014.8 hPa WSW 2 mph /  3.2 km/h 3 mph /  4.8 km/h 82 % 0 in /  0.0 mm
23:37 72.9 °F /  22.7 °C 63.7 °F /  17.6 °C 30 in /  1015.8 hPa Calm     73 % 0 in /  0.0 mm
23:42 72.9 °F /  22.7 °C 64 °F /  17.8 °C 30 in /  1014.8 hPa Calm     74 % 0 in /  0.0 mm
23:45 67.8 °F /  19.9 °C 62.4 °F /  16.9 °C 30 in /  1014.8 hPa Calm   2 mph /  3.2 km/h 83 % 0 in /  0.0 mm
23:47 72.9 °F /  22.7 °C 64 °F /  17.8 °C 30 in /  1014.8 hPa Calm     74 % 0 in /  0.0 mm
23:52 72.7 °F /  22.6 °C 63.9 °F /  17.7 °C 30 in /  1014.8 hPa Calm     74 % 0 in /  0.0 mm
23:55 68.5 °F /  20.3 °C 62.8 °F /  17.1 °C 30 in /  1014.8 hPa West 2 mph /  3.2 km/h 3 mph /  4.8 km/h 82 % 0 in /  0.0 mm
23:57 72.7 °F /  22.6 °C 63.9 °F /  17.7 °C 30 in /  1015.8 hPa Calm     74 % 0 in /  0.0 mm
Meteo Sesrovires
Elogis d' Weather Underground - 3.75 mb

Guio original per  Jim McMurry - jmcmurry@mwt.net Adaptat per a la plantilla per  Wim van der Kuil - Leuven-Template.eu

Trobareu la nostra informacio del temps tambe a:

Weather Underground

AWEKAS